sensor_id;sensor_type;location;lat;lon;timestamp;pressure;altitude;pressure_sealevel;temperature;humidity
78671;BME280;68277;52.724;6.516;2023-03-01T00:01:16;103197.56;;;-1.04;68.84
78671;BME280;68277;52.724;6.516;2023-03-01T00:03:45;103216.81;;;-1.01;67.33
78671;BME280;68277;52.724;6.516;2023-03-01T00:06:11;103224.09;;;-0.95;68.96
78671;BME280;68277;52.724;6.516;2023-03-01T00:08:36;103202.47;;;-1.09;68.69
78671;BME280;68277;52.724;6.516;2023-03-01T00:13:31;103209.72;;;-1.03;69.13
78671;BME280;68277;52.724;6.516;2023-03-01T00:15:56;103241.88;;;-0.88;68.14
78671;BME280;68277;52.724;6.516;2023-03-01T00:18:22;103206.84;;;-1.08;72.76
78671;BME280;68277;52.724;6.516;2023-03-01T00:20:53;103222.84;;;-1.02;70.69
78671;BME280;68277;52.724;6.516;2023-03-01T00:23:19;103188.78;;;-1.19;69.91
78671;BME280;68277;52.724;6.516;2023-03-01T00:25:45;103178.94;;;-1.25;68.28
78671;BME280;68277;52.724;6.516;2023-03-01T00:28:10;103222.91;;;-1.00;69.22
78671;BME280;68277;52.724;6.516;2023-03-01T00:30:35;103236.81;;;-1.00;69.48
78671;BME280;68277;52.724;6.516;2023-03-01T00:33:01;103181.41;;;-1.26;69.44
78671;BME280;68277;52.724;6.516;2023-03-01T00:35:26;103184.00;;;-1.26;69.44
78671;BME280;68277;52.724;6.516;2023-03-01T00:37:52;103227.22;;;-1.01;68.04
78671;BME280;68277;52.724;6.516;2023-03-01T00:40:23;103222.53;;;-1.06;69.81
78671;BME280;68277;52.724;6.516;2023-03-01T00:42:49;103186.81;;;-1.23;68.35
78671;BME280;68277;52.724;6.516;2023-03-01T00:45:14;103220.53;;;-1.10;69.30
78671;BME280;68277;52.724;6.516;2023-03-01T00:47:40;103224.75;;;-1.12;69.01
78671;BME280;68277;52.724;6.516;2023-03-01T00:50:06;103196.00;;;-1.28;69.49
78671;BME280;68277;52.724;6.516;2023-03-01T00:52:31;103171.56;;;-1.45;70.22
78671;BME280;68277;52.724;6.516;2023-03-01T00:54:56;103166.31;;;-1.47;69.80
78671;BME280;68277;52.724;6.516;2023-03-01T00:57:23;103210.09;;;-1.25;69.17
78671;BME280;68277;52.724;6.516;2023-03-01T00:59:49;103225.28;;;-1.18;69.17
78671;BME280;68277;52.724;6.516;2023-03-01T01:02:14;103195.72;;;-1.33;69.84
78671;BME280;68277;52.724;6.516;2023-03-01T01:04:40;103224.25;;;-1.20;69.16
78671;BME280;68277;52.724;6.516;2023-03-01T01:07:06;103223.19;;;-1.23;69.89
78671;BME280;68277;52.724;6.516;2023-03-01T01:09:31;103193.84;;;-1.35;69.17
78671;BME280;68277;52.724;6.516;2023-03-01T01:11:57;103195.44;;;-1.38;69.34
78671;BME280;68277;52.724;6.516;2023-03-01T01:14:22;103167.50;;;-1.55;69.72
78671;BME280;68277;52.724;6.516;2023-03-01T01:16:48;103193.25;;;-1.45;70.22
78671;BME280;68277;52.724;6.516;2023-03-01T01:19:14;103183.56;;;-1.47;69.78
78671;BME280;68277;52.724;6.516;2023-03-01T01:21:41;103133.91;;;-1.79;72.80
78671;BME280;68277;52.724;6.516;2023-03-01T01:24:08;103207.53;;;-1.38;71.98
78671;BME280;68277;52.724;6.516;2023-03-01T01:26:34;103128.44;;;-1.84;70.23
78671;BME280;68277;52.724;6.516;2023-03-01T01:29:01;103126.91;;;-1.80;68.81
78671;BME280;68277;52.724;6.516;2023-03-01T01:31:27;103177.28;;;-1.51;69.33
78671;BME280;68277;52.724;6.516;2023-03-01T01:33:54;103157.44;;;-1.63;71.48
78671;BME280;68277;52.724;6.516;2023-03-01T01:36:20;103168.91;;;-1.60;70.75
78671;BME280;68277;52.724;6.516;2023-03-01T01:38:46;103184.28;;;-1.50;69.47
78671;BME280;68277;52.724;6.516;2023-03-01T01:41:13;103161.94;;;-1.61;71.09
78671;BME280;68277;52.724;6.516;2023-03-01T01:43:41;103127.63;;;-1.83;70.60
78671;BME280;68277;52.724;6.516;2023-03-01T01:46:19;103192.63;;;-1.41;72.00
78671;BME280;68277;52.724;6.516;2023-03-01T01:48:50;103147.16;;;-1.62;70.77
78671;BME280;68277;52.724;6.516;2023-03-01T01:51:25;103178.59;;;-1.44;71.73
78671;BME280;68277;52.724;6.516;2023-03-01T01:53:57;103164.81;;;-1.56;71.01
78671;BME280;68277;52.724;6.516;2023-03-01T01:56:26;103136.19;;;-1.71;70.56
78671;BME280;68277;52.724;6.516;2023-03-01T01:58:53;103157.72;;;-1.59;71.27
78671;BME280;68277;52.724;6.516;2023-03-01T02:01:20;103157.66;;;-1.60;71.67
78671;BME280;68277;52.724;6.516;2023-03-01T02:03:46;103141.75;;;-1.65;70.26
78671;BME280;68277;52.724;6.516;2023-03-01T02:06:28;103122.63;;;-1.80;71.01
78671;BME280;68277;52.724;6.516;2023-03-01T02:08:57;103131.31;;;-1.79;72.03
78671;BME280;68277;52.724;6.516;2023-03-01T02:11:25;103177.19;;;-1.52;71.58
78671;BME280;68277;52.724;6.516;2023-03-01T02:13:53;103165.22;;;-1.63;71.73
78671;BME280;68277;52.724;6.516;2023-03-01T02:16:19;103162.72;;;-1.62;71.18
78671;BME280;68277;52.724;6.516;2023-03-01T02:18:45;103171.78;;;-1.55;70.53
78671;BME280;68277;52.724;6.516;2023-03-01T02:23:50;103089.41;;;-1.98;70.95
78671;BME280;68277;52.724;6.516;2023-03-01T02:26:34;103159.34;;;-1.61;70.81
78671;BME280;68277;52.724;6.516;2023-03-01T02:29:02;103156.53;;;-1.64;70.56
78671;BME280;68277;52.724;6.516;2023-03-01T02:31:27;103129.88;;;-1.74;71.71
78671;BME280;68277;52.724;6.516;2023-03-01T02:34:11;103127.69;;;-1.81;71.33
78671;BME280;68277;52.724;6.516;2023-03-01T02:36:41;103150.66;;;-1.74;72.57
78671;BME280;68277;52.724;6.516;2023-03-01T02:39:12;103090.31;;;-2.11;71.59
78671;BME280;68277;52.724;6.516;2023-03-01T02:41:41;103084.75;;;-2.17;72.52
78671;BME280;68277;52.724;6.516;2023-03-01T02:44:08;103128.50;;;-1.95;75.26
78671;BME280;68277;52.724;6.516;2023-03-01T02:46:34;103101.59;;;-2.11;75.82
78671;BME280;68277;52.724;6.516;2023-03-01T02:49:28;103136.28;;;-1.95;73.05
78671;BME280;68277;52.724;6.516;2023-03-01T02:55:04;103152.88;;;-1.93;75.43
78671;BME280;68277;52.724;6.516;2023-03-01T02:57:33;103091.22;;;-2.24;74.69
78671;BME280;68277;52.724;6.516;2023-03-01T03:00:08;103081.97;;;-2.33;76.56
78671;BME280;68277;52.724;6.516;2023-03-01T03:02:35;103103.59;;;-2.20;74.70
78671;BME280;68277;52.724;6.516;2023-03-01T03:05:09;103086.63;;;-2.28;75.02
78671;BME280;68277;52.724;6.516;2023-03-01T03:07:36;103121.44;;;-2.11;75.60
78671;BME280;68277;52.724;6.516;2023-03-01T03:10:04;103106.19;;;-2.20;72.79
78671;BME280;68277;52.724;6.516;2023-03-01T03:12:31;103076.66;;;-2.35;73.34
78671;BME280;68277;52.724;6.516;2023-03-01T03:14:57;103122.72;;;-2.04;76.25
78671;BME280;68277;52.724;6.516;2023-03-01T03:17:22;103062.50;;;-2.40;76.67
78671;BME280;68277;52.724;6.516;2023-03-01T03:19:48;103075.19;;;-2.31;75.69
78671;BME280;68277;52.724;6.516;2023-03-01T03:22:14;103107.09;;;-2.19;73.11
78671;BME280;68277;52.724;6.516;2023-03-01T03:24:39;103127.25;;;-2.15;79.94
78671;BME280;68277;52.724;6.516;2023-03-01T03:27:05;103090.53;;;-2.34;79.78
78671;BME280;68277;52.724;6.516;2023-03-01T03:29:31;103121.63;;;-2.21;78.64
78671;BME280;68277;52.724;6.516;2023-03-01T03:31:57;103103.41;;;-2.36;75.65
78671;BME280;68277;52.724;6.516;2023-03-01T03:34:22;103120.47;;;-2.26;75.10
78671;BME280;68277;52.724;6.516;2023-03-01T03:36:55;103057.22;;;-2.67;72.47
78671;BME280;68277;52.724;6.516;2023-03-01T03:39:23;103116.06;;;-2.40;73.03
78671;BME280;68277;52.724;6.516;2023-03-01T03:41:48;103076.13;;;-2.68;73.90
78671;BME280;68277;52.724;6.516;2023-03-01T03:44:14;103113.97;;;-2.46;73.44
78671;BME280;68277;52.724;6.516;2023-03-01T03:46:39;103092.03;;;-2.64;72.17
78671;BME280;68277;52.724;6.516;2023-03-01T03:49:05;103099.78;;;-2.64;72.72
78671;BME280;68277;52.724;6.516;2023-03-01T03:51:30;103083.91;;;-2.82;73.49
78671;BME280;68277;52.724;6.516;2023-03-01T03:53:56;103033.03;;;-3.06;73.47
78671;BME280;68277;52.724;6.516;2023-03-01T03:56:21;103126.19;;;-2.56;73.76
78671;BME280;68277;52.724;6.516;2023-03-01T03:58:51;103099.75;;;-2.77;73.64
78671;BME280;68277;52.724;6.516;2023-03-01T04:01:17;103110.41;;;-2.72;73.72
78671;BME280;68277;52.724;6.516;2023-03-01T04:03:43;103090.38;;;-2.88;74.53
78671;BME280;68277;52.724;6.516;2023-03-01T04:06:14;103055.03;;;-3.12;75.62
78671;BME280;68277;52.724;6.516;2023-03-01T04:08:40;103115.22;;;-2.79;75.79
78671;BME280;68277;52.724;6.516;2023-03-01T04:11:06;103103.31;;;-2.88;74.99
78671;BME280;68277;52.724;6.516;2023-03-01T04:13:51;103091.53;;;-2.96;72.14
78671;BME280;68277;52.724;6.516;2023-03-01T04:16:18;103129.47;;;-2.72;74.63
78671;BME280;68277;52.724;6.516;2023-03-01T04:18:43;103120.25;;;-2.80;72.75
78671;BME280;68277;52.724;6.516;2023-03-01T04:21:09;103092.22;;;-2.99;72.78
78671;BME280;68277;52.724;6.516;2023-03-01T04:23:36;103102.09;;;-2.93;74.75
78671;BME280;68277;52.724;6.516;2023-03-01T04:26:02;103089.44;;;-3.02;75.92
78671;BME280;68277;52.724;6.516;2023-03-01T04:28:31;103122.28;;;-2.76;73.49
78671;BME280;68277;52.724;6.516;2023-03-01T04:31:10;103105.00;;;-2.89;73.66
78671;BME280;68277;52.724;6.516;2023-03-01T04:33:40;103107.59;;;-2.89;72.99
78671;BME280;68277;52.724;6.516;2023-03-01T04:36:07;103087.56;;;-2.91;75.71
78671;BME280;68277;52.724;6.516;2023-03-01T04:38:34;103100.81;;;-2.87;73.80
78671;BME280;68277;52.724;6.516;2023-03-01T04:41:00;103053.44;;;-3.10;72.51
78671;BME280;68277;52.724;6.516;2023-03-01T04:43:25;103051.66;;;-3.11;72.96
78671;BME280;68277;52.724;6.516;2023-03-01T04:45:51;103025.53;;;-3.27;73.70
78671;BME280;68277;52.724;6.516;2023-03-01T04:48:19;103008.47;;;-3.37;74.00
78671;BME280;68277;52.724;6.516;2023-03-01T04:50:47;103022.72;;;-3.30;74.43
78671;BME280;68277;52.724;6.516;2023-03-01T04:53:18;103005.75;;;-3.38;73.15
78671;BME280;68277;52.724;6.516;2023-03-01T04:55:44;103038.41;;;-3.16;73.86
78671;BME280;68277;52.724;6.516;2023-03-01T04:58:10;103007.06;;;-3.32;73.88
78671;BME280;68277;52.724;6.516;2023-03-01T05:00:41;102993.72;;;-3.38;73.03
78671;BME280;68277;52.724;6.516;2023-03-01T05:03:11;102988.31;;;-3.41;74.08
78671;BME280;68277;52.724;6.516;2023-03-01T05:05:40;102989.13;;;-3.42;73.22
78671;BME280;68277;52.724;6.516;2023-03-01T05:08:09;103049.16;;;-3.10;73.20
78671;BME280;68277;52.724;6.516;2023-03-01T05:10:49;103054.03;;;-3.14;74.18
78671;BME280;68277;52.724;6.516;2023-03-01T05:13:16;103059.84;;;-3.05;73.17
78671;BME280;68277;52.724;6.516;2023-03-01T05:15:57;103030.31;;;-3.20;72.66
78671;BME280;68277;52.724;6.516;2023-03-01T05:18:24;103052.75;;;-3.08;72.88
78671;BME280;68277;52.724;6.516;2023-03-01T05:20:54;103052.97;;;-3.05;74.70
78671;BME280;68277;52.724;6.516;2023-03-01T05:23:24;103033.09;;;-3.17;73.52
78671;BME280;68277;52.724;6.516;2023-03-01T05:25:50;102993.63;;;-3.39;75.05
78671;BME280;68277;52.724;6.516;2023-03-01T05:28:18;103038.72;;;-3.11;76.00
78671;BME280;68277;52.724;6.516;2023-03-01T05:30:45;103039.91;;;-3.06;76.15
78671;BME280;68277;52.724;6.516;2023-03-01T05:33:10;103040.91;;;-3.04;75.24
78671;BME280;68277;52.724;6.516;2023-03-01T05:35:39;103019.59;;;-3.13;75.07
78671;BME280;68277;52.724;6.516;2023-03-01T05:38:06;103046.19;;;-3.03;73.97
78671;BME280;68277;52.724;6.516;2023-03-01T05:40:33;103009.50;;;-3.22;73.95
78671;BME280;68277;52.724;6.516;2023-03-01T05:42:59;103051.28;;;-3.04;73.00
78671;BME280;68277;52.724;6.516;2023-03-01T05:45:25;103014.56;;;-3.23;73.20
78671;BME280;68277;52.724;6.516;2023-03-01T05:47:51;103023.75;;;-3.15;74.91
78671;BME280;68277;52.724;6.516;2023-03-01T05:50:19;103002.31;;;-3.26;74.76
78671;BME280;68277;52.724;6.516;2023-03-01T05:52:51;103047.56;;;-3.08;75.84
78671;BME280;68277;52.724;6.516;2023-03-01T05:55:18;103000.09;;;-3.33;75.30
78671;BME280;68277;52.724;6.516;2023-03-01T05:57:43;103047.88;;;-3.03;76.31
78671;BME280;68277;52.724;6.516;2023-03-01T06:00:10;103023.88;;;-3.14;77.33
78671;BME280;68277;52.724;6.516;2023-03-01T06:02:37;103007.91;;;-3.20;73.49
78671;BME280;68277;52.724;6.516;2023-03-01T06:05:04;103028.34;;;-3.11;74.67
78671;BME280;68277;52.724;6.516;2023-03-01T06:07:29;103046.09;;;-3.04;73.89
78671;BME280;68277;52.724;6.516;2023-03-01T06:09:55;103005.00;;;-3.24;74.86
78671;BME280;68277;52.724;6.516;2023-03-01T06:12:20;103033.84;;;-3.07;74.56
78671;BME280;68277;52.724;6.516;2023-03-01T06:14:46;103042.91;;;-3.00;75.53
78671;BME280;68277;52.724;6.516;2023-03-01T06:17:12;103019.16;;;-3.19;73.84
78671;BME280;68277;52.724;6.516;2023-03-01T06:19:38;103038.03;;;-2.96;74.10
78671;BME280;68277;52.724;6.516;2023-03-01T06:22:03;103021.06;;;-3.04;74.18
78671;BME280;68277;52.724;6.516;2023-03-01T06:24:29;103027.97;;;-3.04;74.64
78671;BME280;68277;52.724;6.516;2023-03-01T06:26:54;103041.78;;;-3.04;75.03
78671;BME280;68277;52.724;6.516;2023-03-01T06:29:21;103005.22;;;-3.21;73.63
78671;BME280;68277;52.724;6.516;2023-03-01T06:31:48;103057.53;;;-3.01;74.23
78671;BME280;68277;52.724;6.516;2023-03-01T06:34:13;103063.94;;;-2.96;72.76
78671;BME280;68277;52.724;6.516;2023-03-01T06:36:42;103051.59;;;-3.00;73.43
78671;BME280;68277;52.724;6.516;2023-03-01T06:39:07;103019.69;;;-3.12;73.77
78671;BME280;68277;52.724;6.516;2023-03-01T06:41:35;103034.34;;;-2.99;75.80
78671;BME280;68277;52.724;6.516;2023-03-01T06:44:01;103050.59;;;-2.89;78.69
78671;BME280;68277;52.724;6.516;2023-03-01T06:46:27;103022.59;;;-2.94;75.59
78671;BME280;68277;52.724;6.516;2023-03-01T06:48:53;103053.53;;;-2.32;74.39
78671;BME280;68277;52.724;6.516;2023-03-01T06:51:18;103062.56;;;-1.99;74.39
78671;BME280;68277;52.724;6.516;2023-03-01T06:53:45;103034.47;;;-2.32;71.58
78671;BME280;68277;52.724;6.516;2023-03-01T06:56:11;103048.53;;;-2.42;73.98
78671;BME280;68277;52.724;6.516;2023-03-01T06:58:37;103050.84;;;-2.46;74.71
78671;BME280;68277;52.724;6.516;2023-03-01T07:01:06;102998.78;;;-2.76;73.33
78671;BME280;68277;52.724;6.516;2023-03-01T07:03:32;103077.56;;;-2.34;74.27
78671;BME280;68277;52.724;6.516;2023-03-01T07:05:57;103083.94;;;-2.29;73.34
78671;BME280;68277;52.724;6.516;2023-03-01T07:08:23;103063.81;;;-2.33;73.36
78671;BME280;68277;52.724;6.516;2023-03-01T07:10:54;103067.56;;;-2.28;73.50
78671;BME280;68277;52.724;6.516;2023-03-01T07:13:20;103063.72;;;-2.22;76.77
78671;BME280;68277;52.724;6.516;2023-03-01T07:15:45;103073.66;;;-2.01;77.71
78671;BME280;68277;52.724;6.516;2023-03-01T07:18:10;103083.53;;;-1.96;76.53
78671;BME280;68277;52.724;6.516;2023-03-01T07:20:36;103084.00;;;-1.88;74.73
78671;BME280;68277;52.724;6.516;2023-03-01T07:23:01;103079.69;;;-1.75;76.93
78671;BME280;68277;52.724;6.516;2023-03-01T07:25:27;103051.22;;;-1.73;78.49
78671;BME280;68277;52.724;6.516;2023-03-01T07:27:52;103058.25;;;-1.15;79.72
78671;BME280;68277;52.724;6.516;2023-03-01T07:30:19;103072.16;;;-0.27;76.74
78671;BME280;68277;52.724;6.516;2023-03-01T07:32:45;103071.50;;;0.54;73.71
78671;BME280;68277;52.724;6.516;2023-03-01T07:35:10;103059.50;;;1.22;70.95
78671;BME280;68277;52.724;6.516;2023-03-01T07:37:36;103068.44;;;1.98;67.13
78671;BME280;68277;52.724;6.516;2023-03-01T07:40:01;103068.00;;;2.43;66.30
78671;BME280;68277;52.724;6.516;2023-03-01T07:42:29;103017.84;;;2.71;64.29
78671;BME280;68277;52.724;6.516;2023-03-01T07:45:00;103040.44;;;2.50;65.25
78671;BME280;68277;52.724;6.516;2023-03-01T07:47:25;103046.53;;;1.94;68.32
78671;BME280;68277;52.724;6.516;2023-03-01T07:49:50;103050.22;;;1.80;69.84
78671;BME280;68277;52.724;6.516;2023-03-01T07:52:16;103029.41;;;1.64;70.11
78671;BME280;68277;52.724;6.516;2023-03-01T07:54:42;103034.00;;;1.70;70.71
78671;BME280;68277;52.724;6.516;2023-03-01T07:57:10;103026.41;;;1.92;69.81
78671;BME280;68277;52.724;6.516;2023-03-01T07:59:35;103070.34;;;2.37;71.05
78671;BME280;68277;52.724;6.516;2023-03-01T08:02:00;103058.13;;;2.55;69.65
78671;BME280;68277;52.724;6.516;2023-03-01T08:04:26;103048.97;;;2.84;68.62
78671;BME280;68277;52.724;6.516;2023-03-01T08:06:52;103051.47;;;3.62;68.22
78671;BME280;68277;52.724;6.516;2023-03-01T08:09:18;103028.84;;;5.52;59.46
78671;BME280;68277;52.724;6.516;2023-03-01T08:11:43;103021.34;;;6.77;53.87
78671;BME280;68277;52.724;6.516;2023-03-01T08:14:09;103042.16;;;6.99;53.75
78671;BME280;68277;52.724;6.516;2023-03-01T08:16:36;103008.34;;;6.52;54.34
78671;BME280;68277;52.724;6.516;2023-03-01T08:19:10;102993.28;;;7.44;52.10
78671;BME280;68277;52.724;6.516;2023-03-01T08:21:36;102993.69;;;10.44;44.94
78671;BME280;68277;52.724;6.516;2023-03-01T08:24:03;103009.78;;;12.95;38.06
78671;BME280;68277;52.724;6.516;2023-03-01T08:26:29;102989.44;;;13.79;37.89
78671;BME280;68277;52.724;6.516;2023-03-01T08:28:55;102945.13;;;13.41;35.53
78671;BME280;68277;52.724;6.516;2023-03-01T08:31:30;102981.50;;;13.63;34.86
78671;BME280;68277;52.724;6.516;2023-03-01T08:33:58;103003.66;;;13.53;35.31
78671;BME280;68277;52.724;6.516;2023-03-01T08:36:29;102981.22;;;12.36;42.73
78671;BME280;68277;52.724;6.516;2023-03-01T08:38:55;103005.00;;;12.12;39.67
78671;BME280;68277;52.724;6.516;2023-03-01T08:41:21;102972.06;;;11.80;40.20
78671;BME280;68277;52.724;6.516;2023-03-01T08:43:47;102977.78;;;12.65;38.57
78671;BME280;68277;52.724;6.516;2023-03-01T08:46:13;102981.41;;;12.92;39.00
78671;BME280;68277;52.724;6.516;2023-03-01T08:48:38;102975.75;;;12.05;39.13
78671;BME280;68277;52.724;6.516;2023-03-01T08:51:13;102988.28;;;11.11;41.14
78671;BME280;68277;52.724;6.516;2023-03-01T08:53:39;103002.53;;;12.50;41.69
78671;BME280;68277;52.724;6.516;2023-03-01T08:56:05;102982.28;;;12.96;38.23
78671;BME280;68277;52.724;6.516;2023-03-01T08:58:31;102986.75;;;11.37;46.27
78671;BME280;68277;52.724;6.516;2023-03-01T09:00:57;103004.56;;;10.03;45.04
78671;BME280;68277;52.724;6.516;2023-03-01T09:03:23;102999.59;;;11.99;43.36
78671;BME280;68277;52.724;6.516;2023-03-01T09:05:50;102977.75;;;14.25;34.21
78671;BME280;68277;52.724;6.516;2023-03-01T09:08:16;102977.63;;;15.84;32.91
78671;BME280;68277;52.724;6.516;2023-03-01T09:10:42;102996.84;;;16.89;29.40
78671;BME280;68277;52.724;6.516;2023-03-01T09:13:07;102991.56;;;17.41;28.03
78671;BME280;68277;52.724;6.516;2023-03-01T09:15:33;102973.69;;;16.18;30.22
78671;BME280;68277;52.724;6.516;2023-03-01T09:17:59;102986.81;;;13.68;42.77
78671;BME280;68277;52.724;6.516;2023-03-01T09:20:25;102976.94;;;14.12;37.21
78671;BME280;68277;52.724;6.516;2023-03-01T09:22:51;102982.25;;;15.67;31.78
78671;BME280;68277;52.724;6.516;2023-03-01T09:25:16;102973.34;;;15.66;38.13
78671;BME280;68277;52.724;6.516;2023-03-01T09:27:42;102970.81;;;16.35;33.30
78671;BME280;68277;52.724;6.516;2023-03-01T09:30:08;102958.09;;;17.16;28.32
78671;BME280;68277;52.724;6.516;2023-03-01T09:32:34;102958.19;;;18.11;28.20
78671;BME280;68277;52.724;6.516;2023-03-01T09:34:59;102949.66;;;18.33;26.68
78671;BME280;68277;52.724;6.516;2023-03-01T09:37:35;102974.88;;;19.06;25.68
78671;BME280;68277;52.724;6.516;2023-03-01T09:40:06;102960.97;;;19.26;26.54
78671;BME280;68277;52.724;6.516;2023-03-01T09:42:34;102978.72;;;19.33;24.78
78671;BME280;68277;52.724;6.516;2023-03-01T09:45:05;102988.34;;;19.04;24.30
78671;BME280;68277;52.724;6.516;2023-03-01T09:47:34;102957.25;;;18.94;24.74
78671;BME280;68277;52.724;6.516;2023-03-01T09:50:13;102967.97;;;18.13;24.80
78671;BME280;68277;52.724;6.516;2023-03-01T09:52:48;102953.06;;;17.48;25.40
78671;BME280;68277;52.724;6.516;2023-03-01T09:55:20;102938.53;;;18.10;25.65
78671;BME280;68277;52.724;6.516;2023-03-01T09:57:55;102928.13;;;17.97;24.44
78671;BME280;68277;52.724;6.516;2023-03-01T10:00:36;102938.19;;;18.27;25.21
78671;BME280;68277;52.724;6.516;2023-03-01T10:03:12;102956.72;;;18.39;25.34
78671;BME280;68277;52.724;6.516;2023-03-01T10:10:54;102941.56;;;17.45;24.80
78671;BME280;68277;52.724;6.516;2023-03-01T10:16:23;102946.34;;;15.97;27.38
78671;BME280;68277;52.724;6.516;2023-03-01T10:18:53;102965.78;;;15.14;27.99
78671;BME280;68277;52.724;6.516;2023-03-01T10:21:20;102966.22;;;14.35;29.66
78671;BME280;68277;52.724;6.516;2023-03-01T10:23:49;102946.78;;;14.03;30.53
78671;BME280;68277;52.724;6.516;2023-03-01T10:26:44;102966.34;;;12.91;35.48
78671;BME280;68277;52.724;6.516;2023-03-01T10:29:13;102968.06;;;12.70;32.88
78671;BME280;68277;52.724;6.516;2023-03-01T10:31:42;102951.22;;;12.57;34.92
78671;BME280;68277;52.724;6.516;2023-03-01T10:34:11;102957.31;;;12.30;37.80
78671;BME280;68277;52.724;6.516;2023-03-01T10:36:39;102958.28;;;12.63;37.51
78671;BME280;68277;52.724;6.516;2023-03-01T10:39:13;102960.22;;;13.09;35.29
78671;BME280;68277;52.724;6.516;2023-03-01T10:41:55;102953.06;;;13.05;32.47
78671;BME280;68277;52.724;6.516;2023-03-01T10:44:54;102955.63;;;12.67;34.26
78671;BME280;68277;52.724;6.516;2023-03-01T10:47:20;102961.75;;;12.38;36.29
78671;BME280;68277;52.724;6.516;2023-03-01T10:52:29;102970.13;;;11.58;35.98
78671;BME280;68277;52.724;6.516;2023-03-01T10:55:02;102949.75;;;11.57;37.12
78671;BME280;68277;52.724;6.516;2023-03-01T10:57:38;102961.97;;;11.32;37.31
78671;BME280;68277;52.724;6.516;2023-03-01T11:03:10;102962.63;;;11.12;37.06
78671;BME280;68277;52.724;6.516;2023-03-01T11:05:34;102950.09;;;10.89;37.96
78671;BME280;68277;52.724;6.516;2023-03-01T11:08:01;102957.03;;;10.81;38.32
78671;BME280;68277;52.724;6.516;2023-03-01T11:10:35;102951.38;;;10.45;39.29
78671;BME280;68277;52.724;6.516;2023-03-01T11:13:17;102945.50;;;10.75;39.07
78671;BME280;68277;52.724;6.516;2023-03-01T11:15:58;102933.00;;;10.60;39.22
78671;BME280;68277;52.724;6.516;2023-03-01T11:18:23;102935.44;;;10.42;38.95
78671;BME280;68277;52.724;6.516;2023-03-01T11:20:52;102925.50;;;10.24;38.95
78671;BME280;68277;52.724;6.516;2023-03-01T11:23:18;102925.31;;;10.09;40.80
78671;BME280;68277;52.724;6.516;2023-03-01T11:26:05;102921.66;;;10.01;39.45
78671;BME280;68277;52.724;6.516;2023-03-01T11:28:35;102933.94;;;9.96;40.90
78671;BME280;68277;52.724;6.516;2023-03-01T11:31:07;102932.00;;;9.85;40.87
78671;BME280;68277;52.724;6.516;2023-03-01T11:36:53;102937.75;;;9.55;39.88
78671;BME280;68277;52.724;6.516;2023-03-01T11:40:21;102930.41;;;9.36;39.42
78671;BME280;68277;52.724;6.516;2023-03-01T11:42:46;102940.84;;;9.28;39.39
78671;BME280;68277;52.724;6.516;2023-03-01T11:45:13;102894.47;;;8.93;39.69
78671;BME280;68277;52.724;6.516;2023-03-01T11:55:41;102919.09;;;8.44;41.27
78671;BME280;68277;52.724;6.516;2023-03-01T12:17:15;102885.69;;;8.46;41.35
78671;BME280;68277;52.724;6.516;2023-03-01T12:20:55;102906.38;;;8.70;42.04
78671;BME280;68277;52.724;6.516;2023-03-01T12:25:46;102880.72;;;8.63;41.37
78671;BME280;68277;52.724;6.516;2023-03-01T12:49:57;102849.56;;;8.93;43.02
78671;BME280;68277;52.724;6.516;2023-03-01T12:52:44;102849.34;;;8.79;42.19
78671;BME280;68277;52.724;6.516;2023-03-01T12:55:33;102861.44;;;8.67;42.44
78671;BME280;68277;52.724;6.516;2023-03-01T13:00:36;102837.69;;;8.67;42.69
78671;BME280;68277;52.724;6.516;2023-03-01T13:03:31;102843.09;;;8.73;44.38
78671;BME280;68277;52.724;6.516;2023-03-01T13:09:22;102832.97;;;9.00;42.52
78671;BME280;68277;52.724;6.516;2023-03-01T13:11:49;102834.41;;;8.81;41.22
78671;BME280;68277;52.724;6.516;2023-03-01T13:16:48;102833.00;;;8.49;43.08
78671;BME280;68277;52.724;6.516;2023-03-01T13:19:20;102777.44;;;8.43;44.61
78671;BME280;68277;52.724;6.516;2023-03-01T13:21:47;102784.81;;;8.61;42.97
78671;BME280;68277;52.724;6.516;2023-03-01T13:24:36;102827.34;;;8.79;43.17
78671;BME280;68277;52.724;6.516;2023-03-01T13:29:54;102820.50;;;8.91;43.92
78671;BME280;68277;52.724;6.516;2023-03-01T13:34:47;102799.19;;;8.79;42.25
78671;BME280;68277;52.724;6.516;2023-03-01T13:37:23;102828.38;;;8.88;43.84
78671;BME280;68277;52.724;6.516;2023-03-01T13:39:51;102815.31;;;8.96;43.23
78671;BME280;68277;52.724;6.516;2023-03-01T13:42:31;102816.84;;;8.83;42.79
78671;BME280;68277;52.724;6.516;2023-03-01T13:44:58;102808.56;;;8.62;42.70
78671;BME280;68277;52.724;6.516;2023-03-01T13:47:23;102789.78;;;8.43;43.78
78671;BME280;68277;52.724;6.516;2023-03-01T13:49:53;102783.84;;;8.57;44.27
78671;BME280;68277;52.724;6.516;2023-03-01T13:54:53;102762.38;;;8.35;43.43
78671;BME280;68277;52.724;6.516;2023-03-01T13:57:24;102781.72;;;8.34;44.02
78671;BME280;68277;52.724;6.516;2023-03-01T13:59:50;102770.94;;;8.24;44.51
78671;BME280;68277;52.724;6.516;2023-03-01T14:02:16;102768.59;;;8.38;44.66
78671;BME280;68277;52.724;6.516;2023-03-01T14:04:42;102771.53;;;8.55;44.21
78671;BME280;68277;52.724;6.516;2023-03-01T14:07:19;102753.75;;;8.45;43.35
78671;BME280;68277;52.724;6.516;2023-03-01T14:09:47;102752.91;;;8.47;44.15
78671;BME280;68277;52.724;6.516;2023-03-01T14:15:39;102751.47;;;8.66;43.35
78671;BME280;68277;52.724;6.516;2023-03-01T14:18:24;102738.19;;;8.61;43.67
78671;BME280;68277;52.724;6.516;2023-03-01T14:20:54;102740.91;;;8.66;43.00
78671;BME280;68277;52.724;6.516;2023-03-01T14:23:23;102742.56;;;8.59;42.77
78671;BME280;68277;52.724;6.516;2023-03-01T14:25:57;102751.25;;;8.54;41.37
78671;BME280;68277;52.724;6.516;2023-03-01T14:28:27;102739.56;;;8.38;41.18
78671;BME280;68277;52.724;6.516;2023-03-01T14:30:57;102732.38;;;8.28;42.83
78671;BME280;68277;52.724;6.516;2023-03-01T14:36:02;102734.59;;;8.55;42.32
78671;BME280;68277;52.724;6.516;2023-03-01T14:38:37;102729.47;;;8.67;44.61
78671;BME280;68277;52.724;6.516;2023-03-01T14:41:12;102717.28;;;8.73;43.53